createdAt,value
2018-03-18T00:00:09.303Z,5.12
2018-03-18T00:02:37.456Z,4.57
2018-03-18T00:05:05.566Z,5.12
2018-03-18T00:07:33.638Z,4.62
2018-03-18T00:10:01.750Z,5.82
2018-03-18T00:12:29.997Z,4.97
2018-03-18T00:14:58.609Z,4.55
2018-03-18T00:17:26.766Z,5.62
2018-03-18T00:19:54.869Z,4.80
2018-03-18T00:22:22.949Z,5.40
2018-03-18T00:24:51.099Z,5.05
2018-03-18T00:27:19.174Z,5.35
2018-03-18T00:29:47.262Z,5.90
2018-03-18T00:32:15.397Z,6.22
2018-03-18T00:34:43.562Z,6.03
2018-03-18T00:37:11.787Z,4.82
2018-03-18T00:39:39.878Z,5.40
2018-03-18T00:42:07.975Z,5.65
2018-03-18T00:44:36.081Z,4.93
2018-03-18T00:47:04.179Z,6.30
2018-03-18T00:49:32.343Z,6.10
2018-03-18T00:52:01.275Z,5.12
2018-03-18T00:54:29.401Z,4.87
2018-03-18T00:56:57.498Z,5.07
2018-03-18T00:59:26.056Z,6.22
2018-03-18T01:01:54.172Z,4.87
2018-03-18T01:04:22.263Z,6.18
2018-03-18T01:06:50.391Z,5.95
2018-03-18T01:09:18.496Z,6.57
2018-03-18T01:11:46.666Z,5.40
2018-03-18T01:14:15.545Z,5.60
2018-03-18T01:16:43.677Z,5.55
2018-03-18T01:19:11.797Z,6.07
2018-03-18T01:21:39.897Z,6.25
2018-03-18T01:24:08.012Z,5.78
2018-03-18T01:26:36.614Z,5.50
2018-03-18T01:29:04.765Z,5.68
2018-03-18T01:31:32.841Z,6.85
2018-03-18T01:34:01.734Z,6.80
2018-03-18T01:36:29.895Z,6.60
2018-03-18T01:38:57.972Z,5.37
2018-03-18T01:41:26.079Z,5.93
2018-03-18T01:43:54.212Z,6.05
2018-03-18T01:46:22.272Z,5.28
2018-03-18T01:48:50.378Z,6.82
2018-03-18T01:51:18.940Z,6.40
2018-03-18T01:53:47.026Z,5.72
2018-03-18T01:56:15.130Z,6.28
2018-03-18T01:58:43.277Z,5.80
2018-03-18T02:01:11.376Z,5.47
2018-03-18T02:03:39.492Z,6.50
2018-03-18T02:06:07.570Z,6.07
2018-03-18T02:08:35.664Z,6.03
2018-03-18T02:11:03.750Z,5.28
2018-03-18T02:13:31.915Z,5.82
2018-03-18T02:16:00.033Z,5.90
2018-03-18T02:18:28.216Z,5.12
2018-03-18T02:20:56.335Z,4.97
2018-03-18T02:23:24.422Z,5.65
2018-03-18T02:25:53.530Z,5.03
2018-03-18T02:28:21.630Z,4.03
2018-03-18T02:30:49.867Z,5.35
2018-03-18T02:33:17.951Z,4.62
2018-03-18T02:35:46.057Z,5.47
2018-03-18T02:51:14.194Z,3.87
2018-03-18T02:53:42.412Z,5.43
2018-03-18T02:56:10.500Z,4.53
2018-03-18T02:58:38.619Z,5.32
2018-03-18T03:01:06.715Z,4.97
2018-03-18T03:03:34.809Z,4.65
2018-03-18T03:06:03.063Z,4.47
2018-03-18T03:08:31.203Z,3.97
2018-03-18T03:10:59.296Z,5.45
2018-03-18T03:13:28.438Z,5.28
2018-03-18T03:15:56.665Z,4.45
2018-03-18T03:18:24.769Z,4.95
2018-03-18T03:20:52.866Z,4.05
2018-03-18T03:23:20.972Z,5.00
2018-03-18T03:25:49.064Z,4.70
2018-03-18T03:28:17.154Z,4.78
2018-03-18T03:30:45.279Z,4.65
2018-03-18T03:33:14.323Z,5.05
2018-03-18T03:35:42.436Z,4.47
2018-03-18T03:38:10.534Z,4.00
2018-03-18T03:40:38.982Z,4.12
2018-03-18T03:43:07.079Z,5.03
2018-03-18T03:45:35.205Z,3.80
2018-03-18T03:48:03.298Z,4.32
2018-03-18T03:50:31.397Z,5.18
2018-03-18T03:52:59.485Z,3.97
2018-03-18T03:55:27.622Z,4.97
2018-03-18T03:57:55.824Z,5.07
2018-03-18T04:00:23.915Z,4.20
2018-03-18T04:02:52.092Z,4.80
2018-03-18T04:05:20.218Z,5.40
2018-03-18T04:07:48.302Z,4.68
2018-03-18T04:10:16.434Z,5.68
2018-03-18T04:12:44.564Z,4.53
2018-03-18T04:15:13.499Z,5.35
2018-03-18T04:17:41.577Z,4.78
2018-03-18T04:20:09.696Z,4.35
2018-03-18T04:22:37.802Z,4.15
2018-03-18T04:25:05.921Z,5.05
2018-03-18T04:27:34.057Z,4.60
2018-03-18T04:30:03.151Z,5.25
2018-03-18T04:32:31.321Z,4.00
2018-03-18T04:34:59.411Z,4.50
2018-03-18T04:37:28.513Z,4.47
2018-03-18T04:39:56.693Z,5.22
2018-03-18T04:42:24.810Z,5.97
2018-03-18T04:44:52.898Z,4.37
2018-03-18T04:47:20.985Z,4.35
2018-03-18T04:49:49.093Z,4.65
2018-03-18T04:52:17.197Z,4.60
2018-03-18T04:54:45.301Z,4.82
2018-03-18T04:57:13.418Z,4.72
2018-03-18T04:59:41.527Z,4.82
2018-03-18T05:02:09.625Z,5.12
2018-03-18T05:04:37.760Z,4.00
2018-03-18T05:07:06.138Z,5.35
2018-03-18T05:09:34.231Z,4.47
2018-03-18T05:12:02.321Z,4.97
2018-03-18T05:14:30.433Z,4.93
2018-03-18T05:16:58.565Z,4.78
2018-03-18T05:19:26.715Z,5.60
2018-03-18T05:21:54.979Z,5.00
2018-03-18T05:24:23.085Z,4.50
2018-03-18T05:26:51.191Z,5.28
2018-03-18T05:29:19.315Z,5.40
2018-03-18T05:31:47.445Z,5.82
2018-03-18T05:34:15.522Z,4.87
2018-03-18T05:36:44.329Z,4.62
2018-03-18T05:39:12.427Z,4.80
2018-03-18T05:41:40.539Z,4.80
2018-03-18T05:44:08.664Z,4.87
2018-03-18T05:46:36.783Z,4.53
2018-03-18T05:49:04.888Z,6.20
2018-03-18T05:51:32.977Z,5.70
2018-03-18T05:54:01.077Z,4.90
2018-03-18T05:56:29.206Z,4.60
2018-03-18T05:58:57.393Z,5.18
2018-03-18T06:01:25.539Z,5.97
2018-03-18T06:03:53.642Z,4.55
2018-03-18T06:06:21.725Z,5.65
2018-03-18T06:08:49.815Z,6.18
2018-03-18T06:11:17.927Z,4.78
2018-03-18T06:13:46.015Z,5.65
2018-03-18T06:16:14.093Z,6.05
2018-03-18T06:18:42.337Z,5.82
2018-03-18T06:21:10.411Z,4.55
2018-03-18T06:23:39.540Z,6.03
2018-03-18T06:26:07.652Z,4.57
2018-03-18T06:28:35.791Z,6.18
2018-03-18T06:31:04.644Z,4.60
2018-03-18T06:33:32.806Z,5.70
2018-03-18T06:36:00.905Z,5.15
2018-03-18T06:38:29.010Z,6.07
2018-03-18T06:40:57.134Z,5.22
2018-03-18T06:43:25.324Z,5.45
2018-03-18T06:45:53.412Z,6.18
2018-03-18T06:48:22.122Z,4.60
2018-03-18T06:50:50.224Z,5.30
2018-03-18T06:53:18.303Z,5.95
2018-03-18T06:55:46.415Z,5.62
2018-03-18T06:58:14.493Z,4.22
2018-03-18T07:00:42.605Z,5.87
2018-03-18T07:03:10.709Z,5.28
2018-03-18T07:05:38.841Z,5.57
2018-03-18T07:08:06.926Z,5.85
2018-03-18T07:10:35.036Z,5.57
2018-03-18T07:13:03.131Z,5.07
2018-03-18T07:15:31.234Z,5.10
2018-03-18T07:17:59.336Z,6.25
2018-03-18T07:20:27.447Z,5.37
2018-03-18T07:22:55.540Z,5.40
2018-03-18T07:25:23.923Z,5.37
2018-03-18T07:27:52.056Z,4.78
2018-03-18T07:30:20.151Z,7.35
2018-03-18T07:32:48.259Z,5.55
2018-03-18T07:35:16.615Z,5.57
2018-03-18T07:37:45.304Z,5.28
2018-03-18T07:40:14.146Z,6.62
2018-03-18T07:42:42.281Z,5.65
2018-03-18T07:45:10.376Z,5.90
2018-03-18T07:47:38.477Z,5.93
2018-03-18T07:50:07.555Z,5.53
2018-03-18T07:52:35.693Z,5.22
2018-03-18T07:55:03.813Z,5.65
2018-03-18T07:57:32.681Z,5.30
2018-03-18T08:00:00.781Z,5.82
2018-03-18T08:02:29.282Z,5.75
2018-03-18T08:04:57.655Z,6.37
2018-03-18T08:07:25.792Z,5.18
2018-03-18T08:09:53.833Z,4.87
2018-03-18T08:12:21.965Z,5.62
2018-03-18T08:14:50.036Z,5.18
2018-03-18T08:17:18.211Z,5.50
2018-03-18T08:19:46.300Z,5.93
2018-03-18T08:22:14.489Z,5.68
2018-03-18T08:24:42.605Z,5.87
2018-03-18T08:27:10.751Z,4.70
2018-03-18T08:29:38.863Z,5.45
2018-03-18T08:32:07.045Z,5.78
2018-03-18T08:34:35.117Z,5.30
2018-03-18T08:37:03.219Z,6.57
2018-03-18T08:39:31.323Z,4.55
2018-03-18T08:41:59.417Z,5.28
2018-03-18T08:44:27.524Z,5.87
2018-03-18T08:46:55.635Z,5.93
2018-03-18T08:49:23.725Z,5.07
2018-03-18T08:51:51.823Z,5.57
2018-03-18T08:54:20.289Z,5.97
2018-03-18T08:56:49.417Z,5.60
2018-03-18T08:59:17.849Z,6.30
2018-03-18T09:01:45.942Z,6.45
2018-03-18T09:04:14.105Z,6.78
2018-03-18T09:06:42.271Z,5.82
2018-03-18T09:09:10.322Z,5.90
2018-03-18T09:11:38.472Z,5.35
2018-03-18T09:14:06.591Z,6.45
2018-03-18T09:16:34.687Z,5.28
2018-03-18T09:19:02.786Z,6.43
2018-03-18T09:21:30.882Z,6.10
2018-03-18T09:23:58.981Z,5.72
2018-03-18T09:26:27.817Z,5.78
2018-03-18T09:28:55.917Z,5.78
2018-03-18T09:31:24.010Z,5.65
2018-03-18T09:33:52.366Z,5.80
2018-03-18T09:36:20.479Z,6.05
2018-03-18T09:38:48.599Z,6.12
2018-03-18T09:41:16.704Z,5.62
2018-03-18T09:43:44.815Z,6.35
2018-03-18T09:46:13.693Z,5.72
2018-03-18T09:48:41.815Z,6.05
2018-03-18T09:51:09.947Z,4.90
2018-03-18T09:53:38.119Z,6.57
2018-03-18T09:56:06.250Z,5.62
2018-03-18T09:58:34.372Z,5.82
2018-03-18T10:01:02.472Z,6.10
2018-03-18T10:03:30.558Z,5.45
2018-03-18T10:05:59.144Z,5.75
2018-03-18T10:08:27.250Z,6.50
2018-03-18T10:10:55.339Z,5.95
2018-03-18T10:13:23.448Z,5.95
2018-03-18T10:28:51.587Z,5.22
2018-03-18T10:31:20.271Z,5.97
2018-03-18T10:33:48.361Z,5.18
2018-03-18T10:36:21.413Z,6.30
2018-03-18T10:38:49.506Z,6.68
2018-03-18T10:41:17.688Z,6.53
2018-03-18T10:43:45.801Z,6.32
2018-03-18T10:46:13.894Z,7.10
2018-03-18T10:48:42.031Z,7.28
2018-03-18T10:51:10.146Z,6.18
2018-03-18T10:53:38.221Z,5.72
2018-03-18T10:56:06.633Z,5.72
2018-03-18T10:58:34.726Z,5.65
2018-03-18T11:01:09.178Z,6.87
2018-03-18T11:03:37.264Z,6.87
2018-03-18T11:06:05.362Z,6.72
2018-03-18T11:08:33.448Z,6.28
2018-03-18T11:11:01.603Z,6.07
2018-03-18T11:13:29.690Z,4.85
2018-03-18T11:15:57.889Z,6.43
2018-03-18T11:18:25.974Z,6.62
2018-03-18T11:20:54.089Z,6.18
2018-03-18T11:23:22.159Z,6.75
2018-03-18T11:25:50.277Z,5.75
2018-03-18T11:28:18.799Z,7.00
2018-03-18T11:30:46.888Z,6.57
2018-03-18T11:33:14.984Z,6.30
2018-03-18T11:35:43.160Z,6.20
2018-03-18T11:38:11.470Z,7.12
2018-03-18T11:40:39.901Z,6.65
2018-03-18T11:43:08.126Z,6.12
2018-03-18T11:45:36.207Z,5.95
2018-03-18T11:48:04.350Z,6.12
2018-03-18T11:50:32.498Z,7.03
2018-03-18T11:53:00.570Z,5.50
2018-03-18T11:55:28.736Z,6.55
2018-03-18T11:57:56.858Z,6.10
2018-03-18T12:00:24.952Z,5.90
2018-03-18T12:02:53.077Z,6.20
2018-03-18T12:05:21.218Z,6.10
2018-03-18T12:07:49.366Z,5.47
2018-03-18T12:10:17.438Z,6.12
2018-03-18T12:12:45.540Z,5.80
2018-03-18T12:15:13.658Z,5.62
2018-03-18T12:17:41.825Z,6.03
2018-03-18T12:20:09.976Z,6.47
2018-03-18T12:22:38.071Z,6.28
2018-03-18T12:25:06.173Z,6.60
2018-03-18T12:27:34.254Z,6.93
2018-03-18T12:30:02.362Z,5.72
2018-03-18T12:32:30.495Z,5.90
2018-03-18T12:34:58.600Z,6.55
2018-03-18T12:37:26.708Z,6.00
2018-03-18T12:40:06.769Z,5.93
2018-03-18T12:42:46.722Z,5.03
2018-03-18T12:45:14.837Z,6.45
2018-03-18T12:47:42.934Z,6.12
2018-03-18T12:50:11.030Z,6.45
2018-03-18T12:52:39.114Z,6.32
2018-03-18T12:55:07.850Z,5.95
2018-03-18T12:57:36.617Z,5.10
2018-03-18T13:00:04.694Z,5.47
2018-03-18T13:02:32.870Z,5.12
2018-03-18T13:18:06.009Z,5.57
2018-03-18T13:20:34.122Z,5.80
2018-03-18T13:23:02.792Z,6.20
2018-03-18T13:25:30.893Z,5.57
2018-03-18T13:27:58.982Z,5.35
2018-03-18T13:30:27.078Z,6.25
2018-03-18T13:32:55.183Z,5.43
2018-03-18T13:35:23.272Z,5.87
2018-03-18T13:37:51.410Z,6.53
2018-03-18T13:40:19.516Z,4.53
2018-03-18T13:42:47.610Z,5.03
2018-03-18T13:45:15.792Z,5.80
2018-03-18T13:47:43.882Z,5.95
2018-03-18T13:50:11.970Z,4.93
2018-03-18T13:52:40.092Z,7.47
2018-03-18T13:55:08.208Z,5.30
2018-03-18T13:57:36.278Z,5.57
2018-03-18T14:00:04.408Z,5.47
2018-03-18T14:02:33.390Z,5.62
2018-03-18T14:05:01.502Z,4.80
2018-03-18T14:07:29.599Z,5.00
2018-03-18T14:09:57.705Z,5.45
2018-03-18T14:12:25.814Z,4.53
2018-03-18T14:14:53.900Z,5.28
2018-03-18T14:17:22.026Z,4.70
2018-03-18T14:19:50.151Z,5.50
2018-03-18T14:22:18.233Z,5.20
2018-03-18T14:24:46.341Z,4.97
2018-03-18T14:27:14.458Z,4.60
2018-03-18T14:29:42.614Z,5.53
2018-03-18T14:32:10.715Z,5.50
2018-03-18T14:34:38.866Z,5.10
2018-03-18T14:50:06.987Z,4.68
2018-03-18T14:52:35.103Z,5.05
2018-03-18T14:55:03.179Z,4.90
2018-03-18T14:57:31.283Z,4.72
2018-03-18T14:59:59.367Z,5.18
2018-03-18T15:02:27.472Z,4.10
2018-03-18T15:04:55.586Z,5.00
2018-03-18T15:07:23.680Z,5.15
2018-03-18T15:09:51.909Z,5.35
2018-03-18T15:12:19.951Z,4.45
2018-03-18T15:14:48.098Z,4.65
2018-03-18T15:17:16.920Z,4.90
2018-03-18T15:19:45.058Z,5.03
2018-03-18T15:22:13.191Z,5.10
2018-03-18T15:24:41.299Z,4.85
2018-03-18T15:27:09.386Z,5.10
2018-03-18T15:29:37.474Z,5.07
2018-03-18T15:32:05.556Z,5.55
2018-03-18T15:34:33.703Z,4.70
2018-03-18T15:37:01.782Z,4.72
2018-03-18T15:39:29.915Z,4.57
2018-03-18T15:41:58.018Z,5.25
2018-03-18T15:44:26.171Z,4.72
2018-03-18T15:46:54.414Z,4.25
2018-03-18T15:49:22.621Z,4.57
2018-03-18T15:51:50.967Z,5.28
2018-03-18T15:54:19.048Z,5.45
2018-03-18T15:56:48.107Z,3.97
2018-03-18T15:59:16.276Z,4.70
2018-03-18T16:01:44.388Z,5.35
2018-03-18T16:04:12.466Z,4.68
2018-03-18T16:06:40.566Z,4.57
2018-03-18T16:09:09.515Z,4.30
2018-03-18T16:11:37.713Z,4.28
2018-03-18T16:14:05.830Z,5.00
2018-03-18T16:16:33.928Z,4.68
2018-03-18T16:19:02.043Z,4.32
2018-03-18T16:21:30.164Z,4.53
2018-03-18T16:23:58.253Z,4.72
2018-03-18T16:26:26.330Z,4.55
2018-03-18T16:28:54.479Z,4.35
2018-03-18T16:31:23.292Z,4.18
2018-03-18T16:33:52.388Z,4.70
2018-03-18T16:36:20.530Z,4.65
2018-03-18T16:38:48.747Z,4.28
2018-03-18T16:41:16.820Z,4.10
2018-03-18T16:43:44.979Z,5.35
2018-03-18T16:46:13.142Z,4.45
2018-03-18T16:48:41.819Z,4.45
2018-03-18T16:51:09.938Z,3.85
2018-03-18T16:53:38.036Z,3.55
2018-03-18T16:56:06.558Z,4.32
2018-03-18T16:58:34.667Z,4.82
2018-03-18T17:01:02.758Z,4.25
2018-03-18T17:03:30.869Z,4.15
2018-03-18T17:05:59.041Z,4.40
2018-03-18T17:08:27.115Z,4.85
2018-03-18T17:10:55.288Z,4.78
2018-03-18T17:13:23.663Z,4.45
2018-03-18T17:15:51.916Z,4.40
2018-03-18T17:18:20.041Z,4.53
2018-03-18T17:20:48.177Z,4.30
2018-03-18T17:23:16.318Z,4.43
2018-03-18T17:25:45.039Z,4.10
2018-03-18T17:28:13.150Z,5.07
2018-03-18T17:30:41.256Z,4.32
2018-03-18T17:33:09.354Z,4.40
2018-03-18T17:35:37.555Z,3.92
2018-03-18T17:38:05.698Z,4.87
2018-03-18T17:40:33.874Z,5.15
2018-03-18T17:43:01.987Z,4.78
2018-03-18T17:45:41.876Z,4.45
2018-03-18T17:48:21.933Z,4.28
2018-03-18T17:51:02.875Z,3.92
2018-03-18T17:53:44.885Z,4.57
2018-03-18T17:56:24.957Z,4.65
2018-03-18T17:58:53.078Z,4.80
2018-03-18T18:01:21.189Z,3.92
2018-03-18T18:03:49.291Z,5.00
2018-03-18T18:06:17.387Z,4.18
2018-03-18T18:08:45.513Z,4.75
2018-03-18T18:11:13.616Z,4.20
2018-03-18T18:13:41.734Z,4.75
2018-03-18T18:16:10.137Z,4.62
2018-03-18T18:18:38.205Z,4.68
2018-03-18T18:21:06.302Z,4.62
2018-03-18T18:23:34.390Z,4.70
2018-03-18T18:26:02.561Z,4.82
2018-03-18T18:28:30.680Z,4.22
2018-03-18T18:30:58.747Z,4.50
2018-03-18T18:33:27.155Z,4.05
2018-03-18T18:35:55.293Z,4.50
2018-03-18T18:38:23.411Z,4.35
2018-03-18T18:40:51.505Z,5.35
2018-03-18T18:43:19.656Z,4.57
2018-03-18T18:45:47.729Z,4.22
2018-03-18T18:48:15.808Z,3.55
2018-03-18T18:50:44.394Z,4.62
2018-03-18T18:53:12.502Z,4.82
2018-03-18T18:55:40.604Z,4.50
2018-03-18T18:58:08.726Z,4.47
2018-03-18T19:00:36.808Z,4.05
2018-03-18T19:03:05.297Z,4.55
2018-03-18T19:05:33.313Z,4.35
2018-03-18T19:08:01.424Z,4.40
2018-03-18T19:10:29.565Z,4.43
2018-03-18T19:12:57.738Z,4.47
2018-03-18T19:15:26.647Z,4.90
2018-03-18T19:17:54.869Z,5.10
2018-03-18T19:20:23.037Z,4.68
2018-03-18T19:22:51.207Z,4.80
2018-03-18T19:25:19.291Z,4.85
2018-03-18T19:27:48.279Z,4.80
2018-03-18T19:30:16.382Z,4.30
2018-03-18T19:32:44.789Z,4.10
2018-03-18T19:35:13.501Z,3.87
2018-03-18T19:37:41.681Z,4.37
2018-03-18T19:40:09.753Z,4.40
2018-03-18T19:42:37.843Z,4.72
2018-03-18T19:45:06.067Z,5.05
2018-03-18T19:47:39.096Z,3.25
2018-03-18T19:50:07.249Z,5.00
2018-03-18T19:52:35.319Z,4.87
2018-03-18T19:55:04.475Z,4.25
2018-03-18T19:57:32.893Z,4.78
2018-03-18T20:00:00.975Z,4.30
2018-03-18T20:02:29.071Z,4.70
2018-03-18T20:04:57.517Z,3.83
2018-03-18T20:07:26.025Z,4.55
2018-03-18T20:09:54.155Z,4.07
2018-03-18T20:12:22.337Z,4.28
2018-03-18T20:14:50.920Z,4.72
2018-03-18T20:17:19.480Z,3.83
2018-03-18T20:19:47.575Z,4.12
2018-03-18T20:22:15.689Z,3.80
2018-03-18T20:24:44.801Z,5.25
2018-03-18T20:27:13.013Z,4.35
2018-03-18T20:29:41.982Z,4.05
2018-03-18T20:32:10.075Z,4.97
2018-03-18T20:34:38.180Z,4.10
2018-03-18T20:37:06.435Z,3.45
2018-03-18T20:39:34.548Z,4.53
2018-03-18T20:42:02.637Z,4.15
2018-03-18T20:44:31.102Z,4.10
2018-03-18T20:46:59.200Z,3.78
2018-03-18T20:49:27.337Z,4.10
2018-03-18T20:51:55.440Z,4.28
2018-03-18T20:54:23.551Z,4.10
2018-03-18T20:56:51.707Z,4.40
2018-03-18T20:59:19.805Z,4.07
2018-03-18T21:01:47.903Z,4.32
2018-03-18T21:04:16.846Z,3.85
2018-03-18T21:06:44.985Z,3.83
2018-03-18T21:09:13.093Z,3.70
2018-03-18T21:11:41.198Z,4.07
2018-03-18T21:14:09.299Z,4.35
2018-03-18T21:16:37.537Z,4.18
2018-03-18T21:19:10.597Z,3.53
2018-03-18T21:21:38.672Z,4.40
2018-03-18T21:24:06.767Z,3.35
2018-03-18T21:26:34.994Z,3.72
2018-03-18T21:29:03.803Z,4.53
2018-03-18T21:31:31.966Z,4.18
2018-03-18T21:34:00.067Z,3.70
2018-03-18T21:36:28.795Z,4.40
2018-03-18T21:38:56.949Z,4.35
2018-03-18T21:41:25.087Z,4.15
2018-03-18T21:43:53.909Z,3.80
2018-03-18T21:46:21.999Z,4.03
2018-03-18T21:48:50.617Z,3.72
2018-03-18T21:51:18.726Z,4.12
2018-03-18T21:53:46.798Z,4.22
2018-03-18T21:56:15.068Z,3.90
2018-03-18T21:58:43.613Z,4.18
2018-03-18T22:01:12.355Z,4.37
2018-03-18T22:03:41.295Z,3.80
2018-03-18T22:06:09.475Z,3.75
2018-03-18T22:08:38.174Z,4.30
2018-03-18T22:11:07.368Z,3.78
2018-03-18T22:13:35.470Z,4.30
2018-03-18T22:16:03.576Z,3.40
2018-03-18T22:18:31.704Z,4.00
2018-03-18T22:21:00.415Z,4.12
2018-03-18T22:23:28.530Z,3.72
2018-03-18T22:25:58.145Z,4.28
2018-03-18T22:28:26.441Z,3.60
2018-03-18T22:30:55.159Z,3.20
2018-03-18T22:33:23.255Z,3.62
2018-03-18T22:35:51.511Z,3.80
2018-03-18T22:38:19.584Z,3.70
2018-03-18T22:40:47.675Z,3.60
2018-03-18T22:43:16.036Z,3.72
2018-03-18T22:45:44.137Z,3.42
2018-03-18T22:48:12.589Z,3.72
2018-03-18T22:50:40.678Z,3.97
2018-03-18T22:53:08.814Z,3.62
2018-03-18T22:55:37.038Z,3.95
2018-03-18T22:58:05.467Z,3.58
2018-03-18T23:00:33.585Z,3.50
2018-03-18T23:03:01.677Z,3.97
2018-03-18T23:05:29.910Z,4.12
2018-03-18T23:07:59.010Z,3.97
2018-03-18T23:10:27.106Z,3.53
2018-03-18T23:12:56.145Z,4.07
2018-03-18T23:15:24.237Z,4.05
2018-03-18T23:17:59.197Z,4.03
2018-03-18T23:20:27.312Z,3.70
2018-03-18T23:22:55.398Z,3.80
2018-03-18T23:38:23.499Z,3.90
2018-03-18T23:40:51.641Z,3.00
2018-03-18T23:43:19.722Z,3.47
2018-03-18T23:45:48.554Z,3.80
2018-03-18T23:48:16.978Z,3.40
2018-03-18T23:50:48.679Z,3.70
2018-03-18T23:53:16.811Z,2.97
2018-03-18T23:55:44.893Z,4.35
2018-03-18T23:58:12.998Z,3.78
